Time;durP1;ratioP1;P1;durP2;ratioP2;P2;SDS_P1;SDS_P2;PMS_P1;PMS_P2;Temp;Humidity;BMP_temperature;BMP_pressure;BME280_temperature;BME280_humidity;BME280_pressure;Samples;Min_cycle;Max_cycle;Signal;HPM_P1;HPM_P2
2021/06/30 00:01:18;;;;;;;1.30;0.98;;;15.90;99.90;;;;;;5029658;28;20100;-71
2021/06/30 00:03:44;;;;;;;1.08;0.90;;;15.90;99.90;;;;;;5026755;28;20082;-71
2021/06/30 00:06:10;;;;;;;2.20;0.80;;;16.00;99.90;;;;;;5027659;28;20070;-71
2021/06/30 00:08:36;;;;;;;5.65;1.45;;;15.90;99.90;;;;;;5029929;28;20189;-71
2021/06/30 00:11:03;;;;;;;2.47;1.08;;;15.90;99.90;;;;;;5028025;28;20153;-71
2021/06/30 00:13:29;;;;;;;2.10;1.10;;;15.90;99.90;;;;;;5027842;28;20090;-71
2021/06/30 00:15:55;;;;;;;2.05;1.20;;;15.90;99.90;;;;;;5028985;28;20089;-71
2021/06/30 00:18:23;;;;;;;1.88;1.00;;;15.90;99.90;;;;;;5029329;28;20212;-71
2021/06/30 00:20:50;;;;;;;3.17;1.30;;;15.80;99.90;;;;;;5029025;28;20141;-71
2021/06/30 00:23:15;;;;;;;2.70;1.10;;;15.80;99.90;;;;;;5028422;28;20132;-71
2021/06/30 00:25:42;;;;;;;1.65;1.00;;;15.90;99.90;;;;;;5027913;28;20542;-71
2021/06/30 00:28:08;;;;;;;1.08;0.88;;;15.90;99.90;;;;;;5029806;28;20085;-71
2021/06/30 00:30:33;;;;;;;2.28;1.10;;;15.80;99.90;;;;;;5028429;28;20082;-71
2021/06/30 00:32:59;;;;;;;2.67;1.02;;;15.80;99.90;;;;;;5027782;28;20550;-71
2021/06/30 00:35:25;;;;;;;3.55;1.00;;;15.80;99.90;;;;;;5029541;28;20537;-71
2021/06/30 00:37:50;;;;;;;2.17;0.77;;;15.80;99.90;;;;;;5030253;28;20233;-71
2021/06/30 00:40:16;;;;;;;2.20;1.05;;;15.80;99.90;;;;;;5027266;28;20093;-71
2021/06/30 00:42:42;;;;;;;2.80;1.02;;;15.80;99.90;;;;;;5027612;28;20158;-71
2021/06/30 00:45:09;;;;;;;6.50;1.20;;;15.70;99.90;;;;;;5028257;28;20090;-71
2021/06/30 00:47:35;;;;;;;1.77;1.10;;;15.70;99.90;;;;;;5026912;28;20113;-71
2021/06/30 00:50:02;;;;;;;1.50;1.00;;;15.70;99.90;;;;;;5029563;28;20086;-71
2021/06/30 00:52:28;;;;;;;1.40;0.88;;;15.80;99.90;;;;;;5028844;28;20603;-71
2021/06/30 00:54:54;;;;;;;2.03;1.17;;;15.80;99.90;;;;;;5028002;28;20120;-71
2021/06/30 00:57:21;;;;;;;2.42;0.90;;;15.60;99.90;;;;;;5025844;28;20094;-71
2021/06/30 00:59:46;;;;;;;2.45;1.20;;;15.70;99.90;;;;;;5027180;28;20109;-71
2021/06/30 01:02:12;;;;;;;1.40;0.95;;;15.70;99.90;;;;;;5028421;28;20089;-71
2021/06/30 01:04:38;;;;;;;1.63;1.10;;;15.70;99.90;;;;;;5026824;28;20484;-71
2021/06/30 01:07:03;;;;;;;1.95;0.95;;;15.60;99.90;;;;;;5027140;28;20105;-71
2021/06/30 01:09:30;;;;;;;1.92;1.00;;;15.60;99.90;;;;;;5027903;28;20086;-71
2021/06/30 01:11:58;;;;;;;2.55;1.08;;;15.60;99.90;;;;;;5026084;28;20128;-71
2021/06/30 01:14:29;;;;;;;3.88;1.55;;;15.60;99.90;;;;;;5027094;28;20446;-71
2021/06/30 01:16:56;;;;;;;2.10;1.10;;;15.70;99.90;;;;;;5024091;28;20094;-71
2021/06/30 01:19:23;;;;;;;1.35;0.85;;;15.70;99.90;;;;;;5026393;28;20104;-71
2021/06/30 01:21:50;;;;;;;1.30;0.80;;;15.70;99.90;;;;;;5021600;28;20081;-71
2021/06/30 01:24:17;;;;;;;4.15;1.20;;;15.70;99.90;;;;;;5014277;28;20074;-71
2021/06/30 01:26:44;;;;;;;2.20;1.10;;;15.70;99.90;;;;;;5025561;28;20135;-71
2021/06/30 01:29:09;;;;;;;1.60;0.77;;;15.70;99.90;;;;;;5005666;28;20085;-71
2021/06/30 01:31:35;;;;;;;2.03;1.13;;;15.70;99.90;;;;;;5024755;28;20703;-71
2021/06/30 01:34:01;;;;;;;2.90;0.95;;;15.70;99.90;;;;;;5025834;28;20143;-71
2021/06/30 01:36:26;;;;;;;3.90;1.10;;;15.60;99.90;;;;;;5027456;28;20088;-71
2021/06/30 01:38:52;;;;;;;1.33;0.82;;;15.60;99.90;;;;;;5008189;28;20096;-71
2021/06/30 01:41:17;;;;;;;3.35;1.33;;;15.60;99.90;;;;;;5028358;28;20184;-71
2021/06/30 01:43:43;;;;;;;1.65;1.10;;;15.60;99.90;;;;;;5027010;28;20089;-71
2021/06/30 01:46:09;;;;;;;2.58;1.17;;;15.60;99.90;;;;;;5027833;28;20074;-71
2021/06/30 01:48:35;;;;;;;1.25;1.15;;;15.60;99.90;;;;;;5026246;28;20108;-71
2021/06/30 01:51:01;;;;;;;2.45;0.95;;;15.60;99.90;;;;;;5028724;28;20074;-71
2021/06/30 01:53:27;;;;;;;2.60;0.80;;;15.60;99.90;;;;;;5006612;28;20442;-71
2021/06/30 01:55:53;;;;;;;1.23;1.13;;;15.60;99.90;;;;;;5025484;28;20082;-72
2021/06/30 01:58:21;;;;;;;1.52;1.20;;;15.60;99.90;;;;;;5027977;28;20163;-71
2021/06/30 02:00:54;;;;;;;2.20;0.77;;;15.60;99.90;;;;;;5028861;28;20829;-71
2021/06/30 02:03:20;;;;;;;1.90;1.45;;;15.60;99.90;;;;;;5026401;28;20137;-72
2021/06/30 02:05:47;;;;;;;1.50;0.90;;;15.60;99.90;;;;;;5026310;28;20081;-72
2021/06/30 02:08:12;;;;;;;1.73;1.00;;;15.60;99.90;;;;;;5025654;28;20186;-72
2021/06/30 02:10:38;;;;;;;1.30;1.20;;;15.60;99.90;;;;;;5027723;28;20153;-72
2021/06/30 02:13:05;;;;;;;2.67;1.00;;;15.60;99.90;;;;;;5027969;28;20535;-70
2021/06/30 02:15:32;;;;;;;2.97;1.35;;;15.60;99.90;;;;;;5027425;28;20602;-72
2021/06/30 02:18:00;;;;;;;1.90;0.80;;;15.60;99.90;;;;;;5027160;28;20094;-72
2021/06/30 02:20:27;;;;;;;1.55;1.13;;;15.60;99.90;;;;;;5024691;28;20143;-72
2021/06/30 02:22:54;;;;;;;1.90;1.23;;;15.60;99.90;;;;;;5027022;28;20177;-70
2021/06/30 02:25:25;;;;;;;5.18;0.98;;;15.60;99.90;;;;;;5027900;28;20543;-71
2021/06/30 02:27:51;;;;;;;3.13;1.25;;;15.70;99.90;;;;;;5023131;28;20090;-69
2021/06/30 02:30:24;;;;;;;2.63;0.95;;;15.60;99.90;;;;;;4983491;28;20113;-72
2021/06/30 02:32:50;;;;;;;1.58;0.88;;;15.70;99.90;;;;;;5020168;28;20667;-72
2021/06/30 02:35:19;;;;;;;3.25;1.08;;;15.70;99.90;;;;;;5027181;28;20100;-72
2021/06/30 02:37:46;;;;;;;1.10;1.00;;;15.80;99.90;;;;;;5023974;28;20291;-72
2021/06/30 02:40:14;;;;;;;10.43;1.52;;;15.70;99.90;;;;;;5026022;28;20128;-69
2021/06/30 02:42:41;;;;;;;1.60;1.00;;;15.70;99.90;;;;;;5029179;28;20587;-71
2021/06/30 02:45:09;;;;;;;2.13;0.90;;;15.80;99.90;;;;;;5027298;28;20699;-71
2021/06/30 02:47:36;;;;;;;0.95;0.77;;;15.80;99.90;;;;;;5026166;28;20184;-71
2021/06/30 02:50:04;;;;;;;1.27;1.00;;;15.80;99.90;;;;;;5027109;28;20078;-69
2021/06/30 02:52:29;;;;;;;2.10;1.13;;;15.80;99.90;;;;;;5026612;28;20504;-72
2021/06/30 02:54:55;;;;;;;1.20;0.95;;;15.80;99.90;;;;;;5028286;28;20092;-69
2021/06/30 02:57:21;;;;;;;1.27;1.00;;;15.80;99.90;;;;;;5027076;28;20113;-69
2021/06/30 02:59:46;;;;;;;3.03;1.17;;;15.80;99.90;;;;;;5026236;28;20177;-69
2021/06/30 03:02:12;;;;;;;1.70;1.05;;;15.80;99.90;;;;;;5028231;28;20086;-70
2021/06/30 03:04:37;;;;;;;1.88;1.60;;;15.90;99.90;;;;;;5028309;28;20110;-72
2021/06/30 03:07:03;;;;;;;2.90;1.80;;;15.90;99.90;;;;;;5007940;28;20085;-69
2021/06/30 03:09:29;;;;;;;2.55;1.40;;;15.90;99.90;;;;;;5008821;28;20164;-71
2021/06/30 03:11:54;;;;;;;2.65;1.13;;;15.90;99.90;;;;;;5027913;28;20077;-69
2021/06/30 03:14:20;;;;;;;1.63;0.88;;;15.90;99.90;;;;;;5027075;28;20089;-69
2021/06/30 03:16:49;;;;;;;2.25;1.05;;;15.90;99.90;;;;;;5025393;28;20086;-71
2021/06/30 03:19:15;;;;;;;1.17;0.98;;;15.80;99.90;;;;;;5028217;28;20608;-69
2021/06/30 03:21:41;;;;;;;4.28;1.00;;;15.80;99.90;;;;;;5028226;28;20074;-69
2021/06/30 03:24:07;;;;;;;3.63;0.80;;;15.80;99.90;;;;;;5026800;28;20074;-70
2021/06/30 03:26:32;;;;;;;1.48;1.00;;;15.80;99.90;;;;;;5027644;28;20588;-70
2021/06/30 03:29:01;;;;;;;1.83;0.63;;;15.80;99.90;;;;;;5008337;28;21052;-73
2021/06/30 03:31:27;;;;;;;1.10;0.90;;;15.80;99.90;;;;;;5031728;28;20164;-69
2021/06/30 03:33:52;;;;;;;1.02;0.82;;;15.80;99.90;;;;;;5030265;28;20157;-69
2021/06/30 03:36:18;;;;;;;1.13;0.90;;;15.80;99.90;;;;;;5029878;28;20105;-70
2021/06/30 03:38:43;;;;;;;2.35;1.00;;;15.70;99.90;;;;;;5029729;28;20106;-69
2021/06/30 03:41:09;;;;;;;0.93;0.68;;;15.70;99.90;;;;;;5031724;28;20078;-69
2021/06/30 03:43:35;;;;;;;0.93;0.43;;;15.60;99.90;;;;;;5030006;28;20159;-71
2021/06/30 03:46:00;;;;;;;0.95;0.50;;;15.60;99.90;;;;;;5030741;28;20088;-72
2021/06/30 03:48:26;;;;;;;0.52;0.52;;;15.60;99.90;;;;;;5031075;28;20166;-69
2021/06/30 03:50:51;;;;;;;0.80;0.60;;;15.60;99.90;;;;;;5031220;28;20082;-70
2021/06/30 03:53:17;;;;;;;2.80;0.63;;;15.60;99.90;;;;;;5013652;28;20148;-69
2021/06/30 03:55:43;;;;;;;0.68;0.50;;;15.60;99.90;;;;;;5029949;28;20096;-72
2021/06/30 03:58:08;;;;;;;0.82;0.35;;;15.50;99.90;;;;;;5031042;28;20101;-69
2021/06/30 04:00:34;;;;;;;0.55;0.30;;;15.50;99.90;;;;;;5029642;28;20155;-69
2021/06/30 04:02:59;;;;;;;1.27;0.40;;;15.40;99.90;;;;;;5030545;28;20124;-68
2021/06/30 04:05:25;;;;;;;0.50;0.30;;;15.40;99.90;;;;;;5031578;28;20449;-70
2021/06/30 04:07:51;;;;;;;0.85;0.20;;;15.40;99.90;;;;;;5028710;28;20082;-69
2021/06/30 04:10:17;;;;;;;0.65;0.30;;;15.50;99.90;;;;;;5008928;28;20089;-70
2021/06/30 04:12:42;;;;;;;0.38;0.17;;;15.40;99.90;;;;;;5028882;28;20196;-69
2021/06/30 04:15:10;;;;;;;1.40;0.20;;;15.40;99.90;;;;;;5031216;28;20124;-69
2021/06/30 04:17:35;;;;;;;2.63;0.20;;;15.40;99.90;;;;;;5028609;28;20589;-72
2021/06/30 04:20:06;;;;;;;0.30;0.10;;;15.30;99.90;;;;;;5030251;28;20097;-69
2021/06/30 04:22:32;;;;;;;2.05;0.40;;;15.30;99.90;;;;;;5029301;28;20078;-71
2021/06/30 04:24:58;;;;;;;0.20;0.10;;;15.40;99.90;;;;;;5029918;28;20074;-69
2021/06/30 04:27:23;;;;;;;1.35;0.30;;;15.30;99.90;;;;;;5029435;28;20094;-70
2021/06/30 04:29:52;;;;;;;0.32;0.08;;;15.20;99.90;;;;;;5003233;28;20077;-71
2021/06/30 04:32:17;;;;;;;0.17;0.08;;;15.20;99.90;;;;;;5029573;28;20078;-71
2021/06/30 04:34:43;;;;;;;0.52;0.10;;;15.20;99.90;;;;;;5030999;28;20104;-71
2021/06/30 04:37:08;;;;;;;0.10;0.00;;;15.20;99.90;;;;;;5013623;28;20093;-70
2021/06/30 04:39:34;;;;;;;1.27;0.10;;;15.20;99.90;;;;;;5019690;28;20094;-72
2021/06/30 04:41:59;;;;;;;0.90;0.17;;;15.10;99.90;;;;;;5028610;28;20090;-74
2021/06/30 04:44:25;;;;;;;0.10;0.00;;;15.20;99.90;;;;;;5030474;28;20089;-69
2021/06/30 04:46:51;;;;;;;0.32;0.00;;;15.10;99.90;;;;;;5028827;28;20078;-69
2021/06/30 04:49:16;;;;;;;0.32;0.10;;;15.10;99.90;;;;;;5030042;28;20090;-69
2021/06/30 04:51:44;;;;;;;0.17;0.10;;;15.00;99.90;;;;;;5029285;28;20117;-73
2021/06/30 04:54:10;;;;;;;2.80;0.10;;;15.00;99.90;;;;;;5028394;28;20562;-73
2021/06/30 04:56:42;;;;;;;0.20;0.10;;;15.10;99.90;;;;;;5005624;28;20090;-71
2021/06/30 04:59:08;;;;;;;0.00;0.00;;;15.00;99.90;;;;;;5029438;28;20094;-72
2021/06/30 05:01:34;;;;;;;0.90;0.20;;;15.10;99.90;;;;;;5008342;28;20128;-76
2021/06/30 05:04:00;;;;;;;0.60;0.40;;;15.00;99.90;;;;;;5027309;28;20168;-73
2021/06/30 05:06:25;;;;;;;0.10;0.10;;;15.00;99.90;;;;;;4987392;28;20470;-73
2021/06/30 05:08:51;;;;;;;0.75;0.57;;;14.90;99.90;;;;;;5015273;28;20094;-70
2021/06/30 05:11:17;;;;;;;0.30;0.10;;;14.90;99.90;;;;;;5016622;28;20080;-70
2021/06/30 05:13:42;;;;;;;0.00;0.00;;;15.00;99.90;;;;;;5026968;28;20070;-70
2021/06/30 05:16:08;;;;;;;3.80;0.20;;;15.00;99.90;;;;;;5026756;28;20421;-71
2021/06/30 05:18:33;;;;;;;1.17;0.10;;;15.10;99.90;;;;;;5027254;28;20093;-70
2021/06/30 05:20:59;;;;;;;1.38;0.20;;;15.10;99.90;;;;;;5026506;28;20458;-71
2021/06/30 05:23:25;;;;;;;0.40;0.10;;;15.00;99.90;;;;;;5006326;28;20086;-70
2021/06/30 05:25:52;;;;;;;1.42;0.10;;;15.00;99.90;;;;;;5025378;28;20093;-73
2021/06/30 05:28:18;;;;;;;0.20;0.10;;;15.00;99.90;;;;;;5010650;28;20545;-71
2021/06/30 05:30:43;;;;;;;0.20;0.15;;;15.00;99.90;;;;;;5026080;28;20574;-70
2021/06/30 05:33:09;;;;;;;1.48;0.00;;;15.10;99.90;;;;;;5028147;28;20086;-70
2021/06/30 05:35:35;;;;;;;0.73;0.03;;;15.00;99.90;;;;;;5028541;28;20435;-71
2021/06/30 05:38:01;;;;;;;0.10;0.00;;;14.90;99.90;;;;;;5026102;28;20105;-71
2021/06/30 05:40:26;;;;;;;0.40;0.30;;;15.00;99.90;;;;;;5027378;28;21437;-69
2021/06/30 05:42:54;;;;;;;1.15;0.05;;;14.80;99.90;;;;;;5029331;28;20070;-71
2021/06/30 05:45:20;;;;;;;0.30;0.10;;;15.00;99.90;;;;;;5026180;28;20143;-70
2021/06/30 05:47:46;;;;;;;0.30;0.10;;;14.90;99.90;;;;;;5027978;28;20541;-70
2021/06/30 05:50:13;;;;;;;0.68;0.10;;;14.90;99.90;;;;;;5028448;28;20574;-70
2021/06/30 05:52:40;;;;;;;0.20;0.10;;;15.00;99.90;;;;;;5029337;28;20078;-72
2021/06/30 05:55:07;;;;;;;0.63;0.20;;;15.00;99.90;;;;;;5027894;28;20077;-70
2021/06/30 05:57:33;;;;;;;0.77;0.30;;;15.00;99.90;;;;;;5014449;28;20188;-71
2021/06/30 05:59:59;;;;;;;0.30;0.00;;;15.00;99.90;;;;;;5028282;28;20625;-72
2021/06/30 06:02:25;;;;;;;0.10;0.10;;;15.10;99.90;;;;;;5027900;28;20082;-73
2021/06/30 06:04:51;;;;;;;0.43;0.05;;;15.00;99.90;;;;;;5029248;28;20086;-70
2021/06/30 06:07:16;;;;;;;1.77;0.10;;;15.00;99.90;;;;;;5028772;28;20144;-70
2021/06/30 06:09:42;;;;;;;0.03;0.03;;;14.90;99.90;;;;;;5028646;28;20082;-70
2021/06/30 06:12:07;;;;;;;0.85;0.10;;;15.00;99.90;;;;;;5029840;28;20172;-72
2021/06/30 06:14:33;;;;;;;0.93;0.10;;;15.00;99.90;;;;;;5029177;28;20157;-70
2021/06/30 06:16:58;;;;;;;1.95;0.30;;;15.10;99.90;;;;;;4995781;28;20755;-71
2021/06/30 06:19:25;;;;;;;0.40;0.17;;;15.10;99.90;;;;;;5028491;28;20553;-69
2021/06/30 06:21:51;;;;;;;1.33;0.13;;;15.10;99.90;;;;;;5026664;28;20076;-72
2021/06/30 06:24:18;;;;;;;1.17;0.10;;;15.10;99.90;;;;;;5009218;28;20109;-70
2021/06/30 06:26:44;;;;;;;0.43;0.15;;;15.20;99.90;;;;;;5025009;28;20098;-69
2021/06/30 06:29:10;;;;;;;0.43;0.10;;;15.20;99.90;;;;;;5027746;28;20098;-70
2021/06/30 06:31:36;;;;;;;0.05;0.00;;;15.20;99.90;;;;;;5024945;28;20153;-71
2021/06/30 06:34:02;;;;;;;1.00;0.10;;;15.20;99.90;;;;;;5027356;28;20173;-72
2021/06/30 06:36:28;;;;;;;0.00;0.00;;;15.30;99.90;;;;;;5018306;28;21763;-73
2021/06/30 06:38:53;;;;;;;0.10;0.00;;;15.30;99.90;;;;;;5027070;28;20140;-71
2021/06/30 06:41:19;;;;;;;0.10;0.00;;;15.30;99.90;;;;;;5026775;28;20082;-70
2021/06/30 06:43:45;;;;;;;0.85;0.10;;;15.40;99.90;;;;;;5027059;28;20086;-71
2021/06/30 06:46:11;;;;;;;0.00;0.00;;;15.50;99.90;;;;;;5021725;28;20543;-70
2021/06/30 06:48:37;;;;;;;0.30;0.10;;;15.50;99.90;;;;;;5025102;28;20135;-73
2021/06/30 06:51:03;;;;;;;0.28;0.05;;;15.60;99.90;;;;;;5028074;28;20573;-72
2021/06/30 06:53:29;;;;;;;2.33;0.10;;;15.60;99.90;;;;;;5026584;28;20552;-72
2021/06/30 06:55:56;;;;;;;1.02;0.10;;;15.60;99.90;;;;;;5027324;28;20078;-72
2021/06/30 06:58:22;;;;;;;1.35;0.08;;;15.70;99.90;;;;;;5027391;28;20090;-71
2021/06/30 07:00:48;;;;;;;0.15;0.00;;;15.70;99.90;;;;;;5026598;28;20089;-70
2021/06/30 07:03:14;;;;;;;1.35;0.17;;;15.70;99.90;;;;;;5012645;28;20442;-70
2021/06/30 07:05:39;;;;;;;1.17;0.08;;;15.70;99.90;;;;;;5031355;28;20074;-70
2021/06/30 07:08:05;;;;;;;0.57;0.40;;;15.60;99.90;;;;;;5030532;28;20128;-74
2021/06/30 07:10:31;;;;;;;0.10;0.10;;;15.60;99.90;;;;;;5029969;28;20143;-70
2021/06/30 07:12:57;;;;;;;0.93;0.10;;;15.70;99.90;;;;;;5031030;28;20569;-73
2021/06/30 07:15:23;;;;;;;0.20;0.10;;;15.80;99.90;;;;;;5029736;28;20085;-73
2021/06/30 07:17:48;;;;;;;1.65;0.10;;;15.90;99.90;;;;;;5030053;28;20100;-70
2021/06/30 07:20:14;;;;;;;0.08;0.00;;;15.90;99.90;;;;;;5031357;28;20113;-71
2021/06/30 07:22:39;;;;;;;0.00;0.00;;;16.00;99.90;;;;;;5028713;28;20066;-70
2021/06/30 07:25:05;;;;;;;0.60;0.05;;;16.10;99.90;;;;;;5030952;28;20078;-76
2021/06/30 07:27:31;;;;;;;0.32;0.00;;;16.10;99.90;;;;;;5030728;28;20144;-70
2021/06/30 07:29:57;;;;;;;0.20;0.08;;;16.20;99.90;;;;;;5030195;28;20124;-72
2021/06/30 07:32:22;;;;;;;0.43;0.00;;;16.20;99.90;;;;;;5030972;28;20184;-70
2021/06/30 07:34:48;;;;;;;0.40;0.10;;;16.40;99.90;;;;;;5031591;28;20081;-71
2021/06/30 07:37:14;;;;;;;0.20;0.10;;;16.40;99.90;;;;;;5023175;28;20159;-72
2021/06/30 07:39:39;;;;;;;1.80;0.00;;;16.40;99.90;;;;;;5026861;28;20087;-72
2021/06/30 07:42:05;;;;;;;1.65;0.10;;;16.50;99.90;;;;;;5028775;28;20094;-69
2021/06/30 07:44:31;;;;;;;0.22;0.20;;;16.60;99.90;;;;;;5031093;28;20100;-73
2021/06/30 07:46:57;;;;;;;2.00;0.15;;;16.70;99.90;;;;;;5026676;28;20070;-70
2021/06/30 07:49:22;;;;;;;0.90;0.10;;;16.90;99.90;;;;;;5031064;28;20092;-74
2021/06/30 07:51:50;;;;;;;0.28;0.22;;;16.90;99.90;;;;;;5025447;28;20102;-70
2021/06/30 07:54:16;;;;;;;0.98;0.10;;;16.90;99.90;;;;;;5030833;28;20623;-69
2021/06/30 07:56:42;;;;;;;0.88;0.20;;;17.00;99.90;;;;;;5020291;28;20144;-71
2021/06/30 07:59:09;;;;;;;0.40;0.10;;;17.00;99.90;;;;;;5032238;28;20133;-70
2021/06/30 08:01:35;;;;;;;0.82;0.10;;;17.10;99.90;;;;;;5028508;28;20085;-71
2021/06/30 08:04:01;;;;;;;0.68;0.10;;;17.30;99.90;;;;;;5012908;28;20082;-70
2021/06/30 08:06:28;;;;;;;0.70;0.10;;;17.50;99.90;;;;;;5030272;28;20078;-72
2021/06/30 08:08:53;;;;;;;2.97;0.20;;;17.50;99.90;;;;;;5029845;28;20101;-70
2021/06/30 08:11:23;;;;;;;0.20;0.10;;;17.70;99.90;;;;;;5031539;28;20078;-71
2021/06/30 08:13:48;;;;;;;0.20;0.00;;;17.60;99.90;;;;;;5029556;28;20070;-70
2021/06/30 08:16:14;;;;;;;0.20;0.10;;;17.40;99.90;;;;;;5010708;28;20097;-72
2021/06/30 08:18:39;;;;;;;0.25;0.10;;;17.50;99.90;;;;;;5030521;28;20093;-70
2021/06/30 08:21:05;;;;;;;0.10;0.08;;;17.40;99.90;;;;;;5030996;28;20082;-70
2021/06/30 08:23:30;;;;;;;0.00;0.00;;;17.60;99.90;;;;;;5027469;28;20078;-70
2021/06/30 08:25:56;;;;;;;0.00;0.00;;;17.80;99.90;;;;;;5011494;28;20074;-70
2021/06/30 08:28:26;;;;;;;1.15;0.10;;;18.00;99.90;;;;;;5029410;28;20094;-70
2021/06/30 08:30:52;;;;;;;0.77;0.10;;;18.00;99.90;;;;;;5028217;28;20120;-70
2021/06/30 08:33:18;;;;;;;1.60;0.13;;;18.00;99.90;;;;;;5028332;28;20077;-70
2021/06/30 08:35:44;;;;;;;0.28;0.10;;;18.10;99.90;;;;;;5026683;28;20092;-70
2021/06/30 08:38:10;;;;;;;0.15;0.00;;;18.30;99.90;;;;;;5020159;28;20482;-71
2021/06/30 08:40:37;;;;;;;0.10;0.08;;;18.40;99.90;;;;;;5029003;28;20102;-70
2021/06/30 08:43:07;;;;;;;0.55;0.10;;;18.60;99.90;;;;;;5030949;28;20081;-70
2021/06/30 08:45:33;;;;;;;1.45;0.25;;;18.70;99.90;;;;;;5029725;28;20534;-70
2021/06/30 08:48:01;;;;;;;0.17;0.10;;;18.60;99.90;;;;;;5030991;28;20094;-72
2021/06/30 08:50:27;;;;;;;0.47;0.10;;;18.40;99.90;;;;;;5029215;28;20915;-72
2021/06/30 08:52:54;;;;;;;0.90;0.10;;;18.40;99.90;;;;;;5030612;28;20085;-73
2021/06/30 08:55:21;;;;;;;0.20;0.00;;;18.50;99.90;;;;;;5029481;28;20074;-75
2021/06/30 08:57:49;;;;;;;0.40;0.00;;;18.80;99.90;;;;;;5028849;28;20501;-72
2021/06/30 09:00:15;;;;;;;0.68;0.00;;;18.90;99.90;;;;;;5030802;28;20094;-70
2021/06/30 09:02:47;;;;;;;0.10;0.00;;;18.70;99.90;;;;;;5030367;28;20441;-71
2021/06/30 09:05:35;;;;;;;0.10;0.00;;;18.60;99.90;;;;;;5028745;28;20066;-69
2021/06/30 09:08:00;;;;;;;0.38;0.10;;;18.70;99.90;;;;;;5027876;28;20497;-70
2021/06/30 09:10:30;;;;;;;0.45;0.10;;;18.80;99.90;;;;;;5028139;28;20082;-73
2021/06/30 09:12:56;;;;;;;0.00;0.00;;;18.80;99.90;;;;;;5028609;28;20105;-70
2021/06/30 09:15:33;;;;;;;0.20;0.10;;;18.90;99.90;;;;;;5029365;28;20102;-71
2021/06/30 09:18:18;;;;;;;0.05;0.00;;;18.80;99.90;;;;;;5024024;28;20098;-70
2021/06/30 09:20:45;;;;;;;0.50;0.00;;;18.70;99.90;;;;;;5027378;28;20457;-72
2021/06/30 09:23:11;;;;;;;0.50;0.05;;;18.80;99.90;;;;;;5026394;28;20094;-70
2021/06/30 09:25:42;;;;;;;0.00;0.00;;;18.50;99.90;;;;;;5026611;28;20434;-72
2021/06/30 09:28:24;;;;;;;1.98;0.20;;;18.70;99.90;;;;;;5028837;28;20093;-70
2021/06/30 09:30:56;;;;;;;0.17;0.00;;;19.00;99.90;;;;;;5028127;28;20450;-71
2021/06/30 09:33:22;;;;;;;1.40;0.13;;;19.20;99.90;;;;;;5028632;28;20082;-70
2021/06/30 09:35:48;;;;;;;0.30;0.10;;;19.00;99.90;;;;;;5027153;28;20426;-71
2021/06/30 09:38:31;;;;;;;0.10;0.10;;;19.10;99.90;;;;;;5028754;28;20097;-71
2021/06/30 09:40:58;;;;;;;2.72;0.32;;;18.90;99.90;;;;;;5030052;28;20172;-70
2021/06/30 09:43:27;;;;;;;1.55;0.05;;;18.80;99.90;;;;;;5027329;28;20145;-69
2021/06/30 09:45:55;;;;;;;0.30;0.00;;;18.70;99.90;;;;;;5027100;28;20070;-69
2021/06/30 09:48:28;;;;;;;0.25;0.10;;;18.60;99.90;;;;;;5024352;28;20209;-70
2021/06/30 09:50:55;;;;;;;5.15;0.20;;;18.50;99.90;;;;;;5027717;28;20069;-69
2021/06/30 09:53:40;;;;;;;0.10;0.10;;;18.40;99.90;;;;;;5027185;28;21576;-70
2021/06/30 09:56:32;;;;;;;1.92;0.10;;;18.40;99.90;;;;;;5024024;28;20074;-70
2021/06/30 09:59:18;;;;;;;0.10;0.10;;;18.40;99.90;;;;;;5027380;28;20097;-71
2021/06/30 10:01:51;;;;;;;1.33;0.20;;;18.50;99.90;;;;;;5028679;28;20082;-72
2021/06/30 10:04:32;;;;;;;0.03;0.00;;;18.50;99.90;;;;;;5024806;28;20146;-72
2021/06/30 10:07:25;;;;;;;0.85;0.10;;;18.40;99.90;;;;;;5023600;28;20153;-72
2021/06/30 10:09:58;;;;;;;0.30;0.10;;;18.40;99.90;;;;;;5001405;28;20530;-70
2021/06/30 10:12:26;;;;;;;0.25;0.10;;;18.30;99.90;;;;;;5027218;28;20116;-72
2021/06/30 10:14:52;;;;;;;0.22;0.10;;;18.10;99.90;;;;;;5029099;28;20677;-69
2021/06/30 10:17:19;;;;;;;0.50;0.10;;;18.00;99.90;;;;;;5026538;28;20131;-72
2021/06/30 10:19:47;;;;;;;0.00;0.00;;;18.00;99.90;;;;;;5026518;28;20593;-73
2021/06/30 10:22:13;;;;;;;0.30;0.10;;;18.00;99.90;;;;;;5020642;28;20082;-72
2021/06/30 10:24:40;;;;;;;0.20;0.08;;;18.00;99.90;;;;;;5029170;28;20076;-70
2021/06/30 10:27:07;;;;;;;0.30;0.10;;;18.10;99.90;;;;;;5027762;28;20204;-69
2021/06/30 10:29:37;;;;;;;0.10;0.10;;;18.10;99.90;;;;;;5019822;28;20078;-73
2021/06/30 10:32:06;;;;;;;0.43;0.10;;;18.30;99.90;;;;;;5027875;28;20114;-70
2021/06/30 10:34:35;;;;;;;0.30;0.10;;;18.30;99.90;;;;;;5027974;28;20088;-73
2021/06/30 10:37:00;;;;;;;2.47;0.13;;;18.50;99.90;;;;;;5025993;28;20477;-70
2021/06/30 10:39:35;;;;;;;1.38;0.10;;;18.60;99.90;;;;;;5027804;28;20102;-70
2021/06/30 10:42:16;;;;;;;0.20;0.10;;;18.60;99.90;;;;;;5024894;28;20077;-70
2021/06/30 10:44:49;;;;;;;0.40;0.10;;;18.50;99.90;;;;;;5026727;28;20081;-70
2021/06/30 10:47:46;;;;;;;0.10;0.00;;;18.50;99.90;;;;;;5024931;28;20153;-70
2021/06/30 10:50:30;;;;;;;0.63;0.63;;;18.60;99.90;;;;;;5026687;28;20131;-70
2021/06/30 10:53:30;;;;;;;0.17;0.10;;;18.60;99.90;;;;;;5023126;28;20136;-70
2021/06/30 10:55:59;;;;;;;0.52;0.10;;;18.40;99.90;;;;;;5026100;28;20321;-70
2021/06/30 10:58:30;;;;;;;0.47;0.10;;;18.40;99.90;;;;;;5025387;28;20622;-69
2021/06/30 11:00:58;;;;;;;0.55;0.10;;;18.40;99.90;;;;;;5025595;28;20164;-70
2021/06/30 11:03:29;;;;;;;0.77;0.10;;;18.30;99.90;;;;;;5026317;28;20070;-71
2021/06/30 11:06:17;;;;;;;0.20;0.10;;;18.40;99.90;;;;;;5025193;28;20078;-71
2021/06/30 11:08:50;;;;;;;1.33;0.13;;;18.60;99.90;;;;;;5025990;28;20161;-70
2021/06/30 11:11:25;;;;;;;0.85;0.10;;;18.60;99.90;;;;;;5015484;28;20193;-71
2021/06/30 11:14:01;;;;;;;0.20;0.10;;;18.30;99.90;;;;;;5020544;28;20212;-72
2021/06/30 11:19:17;;;;;;;1.20;0.10;;;18.20;99.90;;;;;;5026142;28;20097;-71
2021/06/30 11:21:53;;;;;;;0.85;0.10;;;18.20;99.90;;;;;;5025003;28;20085;-72
2021/06/30 11:24:50;;;;;;;0.35;0.20;;;18.40;99.90;;;;;;5026719;28;20698;-71
2021/06/30 11:27:20;;;;;;;0.68;0.05;;;18.30;99.90;;;;;;5013995;28;20642;-72
2021/06/30 11:29:51;;;;;;;2.00;0.15;;;18.40;99.90;;;;;;5013096;28;20165;-72
2021/06/30 11:32:32;;;;;;;1.58;0.20;;;18.40;99.90;;;;;;5025002;28;20546;-73
2021/06/30 11:35:12;;;;;;;0.30;0.10;;;18.40;99.90;;;;;;5019168;28;20081;-71
2021/06/30 11:37:40;;;;;;;2.28;0.10;;;18.40;99.90;;;;;;5023722;28;20102;-73
2021/06/30 11:40:19;;;;;;;0.68;0.20;;;18.40;99.90;;;;;;5022273;28;20225;-72
2021/06/30 11:42:50;;;;;;;0.65;0.10;;;18.30;99.90;;;;;;5009465;28;20093;-71
2021/06/30 11:45:25;;;;;;;0.40;0.10;;;18.20;99.90;;;;;;5023249;28;20086;-72
2021/06/30 11:47:53;;;;;;;0.52;0.17;;;18.10;99.90;;;;;;5024494;28;20425;-73
2021/06/30 11:50:22;;;;;;;0.10;0.00;;;18.00;99.90;;;;;;5026999;28;20078;-72
2021/06/30 11:52:49;;;;;;;1.83;0.10;;;18.10;99.90;;;;;;5010511;28;20074;-72
2021/06/30 11:55:15;;;;;;;0.05;0.00;;;18.00;99.90;;;;;;5028410;28;20185;-72
2021/06/30 11:57:55;;;;;;;0.20;0.10;;;18.00;99.90;;;;;;5029813;28;20465;-73
2021/06/30 12:00:22;;;;;;;0.50;0.20;;;18.00;99.90;;;;;;5030182;28;20097;-75
2021/06/30 12:02:53;;;;;;;0.73;0.20;;;17.90;99.90;;;;;;5030438;28;20136;-74
2021/06/30 12:05:23;;;;;;;0.25;0.10;;;17.90;99.90;;;;;;5026816;28;20534;-76
2021/06/30 12:07:49;;;;;;;0.10;0.10;;;17.90;99.90;;;;;;5020693;28;20102;-71
2021/06/30 12:10:16;;;;;;;1.25;0.10;;;17.80;99.90;;;;;;5025672;28;20100;-74
2021/06/30 12:12:42;;;;;;;0.10;0.00;;;17.80;99.90;;;;;;5030341;28;20568;-73
2021/06/30 12:15:10;;;;;;;0.00;0.00;;;17.80;99.90;;;;;;5025608;28;20172;-73
2021/06/30 12:17:36;;;;;;;1.98;0.00;;;17.60;99.90;;;;;;5026500;28;20104;-73
2021/06/30 12:20:05;;;;;;;1.00;0.10;;;17.60;99.90;;;;;;5026958;28;20469;-74
2021/06/30 12:22:33;;;;;;;1.63;0.08;;;17.70;99.90;;;;;;5021220;28;20159;-73
2021/06/30 12:25:09;;;;;;;0.00;0.00;;;17.60;99.90;;;;;;5026467;28;20077;-72
2021/06/30 12:27:45;;;;;;;0.10;0.05;;;17.60;99.90;;;;;;5010850;28;20089;-72
2021/06/30 12:30:31;;;;;;;0.43;0.15;;;17.60;99.90;;;;;;5030023;28;20544;-73
2021/06/30 12:33:01;;;;;;;0.40;0.20;;;17.40;99.90;;;;;;5029857;28;20093;-71
2021/06/30 12:35:32;;;;;;;0.17;0.08;;;17.40;99.90;;;;;;5030239;28;20074;-71
2021/06/30 12:38:04;;;;;;;0.13;0.10;;;17.30;99.90;;;;;;5027193;28;20114;-71
2021/06/30 12:40:32;;;;;;;1.05;0.10;;;17.30;99.90;;;;;;5028201;28;20093;-70
2021/06/30 12:43:04;;;;;;;0.43;0.10;;;17.20;99.90;;;;;;5028269;28;20067;-71
2021/06/30 12:45:41;;;;;;;0.10;0.10;;;17.30;99.90;;;;;;5021374;28;20066;-71
2021/06/30 12:48:12;;;;;;;0.85;0.10;;;17.20;99.90;;;;;;5026452;28;20094;-70
2021/06/30 12:50:48;;;;;;;0.45;0.10;;;17.20;99.90;;;;;;5009165;28;20078;-71
2021/06/30 12:53:25;;;;;;;0.05;0.00;;;17.10;99.90;;;;;;5028028;28;20081;-71
2021/06/30 12:56:03;;;;;;;0.40;0.20;;;17.00;99.90;;;;;;5025262;28;20156;-71